Time;durP1;ratioP1;P1;durP2;ratioP2;P2;SDS_P1;SDS_P2;PMS_P1;PMS_P2;Temp;Humidity;BMP_temperature;BMP_pressure;BME280_temperature;BME280_humidity;BME280_pressure;Samples;Min_cycle;Max_cycle;Signal;HPM_P1;HPM_P2
2022/06/14 02:38:00;;;;;;;18.53;17.33;;;12.90;99.90;;;;;;4971922;28;20483;-70
2022/06/14 02:40:30;;;;;;;19.07;17.43;;;12.90;99.90;;;;;;4973701;28;20452;-70
2022/06/14 02:43:03;;;;;;;19.30;17.83;;;12.90;99.90;;;;;;4973471;28;20467;-70
2022/06/14 02:45:33;;;;;;;19.23;17.33;;;12.90;99.90;;;;;;4974020;28;20448;-70
2022/06/14 02:48:08;;;;;;;18.00;16.70;;;12.80;99.90;;;;;;4974252;28;20458;-70
2022/06/14 02:50:40;;;;;;;19.00;17.30;;;12.80;99.90;;;;;;4973687;28;20462;-71
2022/06/14 02:53:14;;;;;;;19.37;17.47;;;12.80;99.90;;;;;;4973656;28;20463;-71
2022/06/14 02:55:44;;;;;;;33.50;19.63;;;12.70;99.90;;;;;;4973685;28;20518;-71
2022/06/14 02:58:18;;;;;;;19.97;18.10;;;12.70;99.90;;;;;;4973700;28;20460;-70
2022/06/14 03:00:49;;;;;;;19.43;17.73;;;12.60;99.90;;;;;;4974125;28;20792;-71
2022/06/14 03:03:22;;;;;;;19.43;17.93;;;12.60;99.90;;;;;;4972406;28;21017;-70
2022/06/14 03:05:52;;;;;;;19.87;17.93;;;12.60;99.90;;;;;;4972391;28;20456;-71
2022/06/14 03:08:24;;;;;;;19.20;18.00;;;12.60;99.90;;;;;;4974310;28;20459;-71
2022/06/14 03:10:59;;;;;;;20.60;19.00;;;12.50;99.90;;;;;;4973365;28;20836;-71
2022/06/14 03:13:32;;;;;;;19.20;17.80;;;12.40;99.90;;;;;;4973965;28;20478;-71
2022/06/14 03:16:09;;;;;;;21.37;19.13;;;12.40;99.90;;;;;;4973631;28;20479;-71
2022/06/14 03:18:43;;;;;;;19.83;18.23;;;12.30;99.90;;;;;;4973682;28;20451;-71
2022/06/14 03:21:16;;;;;;;21.80;20.00;;;12.40;99.90;;;;;;4973708;28;20458;-71
2022/06/14 03:23:50;;;;;;;20.60;19.27;;;12.40;99.90;;;;;;4974158;28;20460;-71
2022/06/14 03:26:25;;;;;;;19.60;18.10;;;12.40;99.90;;;;;;4973863;28;20455;-71
2022/06/14 03:28:56;;;;;;;21.03;19.33;;;12.40;99.90;;;;;;4973722;28;20455;-71
2022/06/14 03:31:30;;;;;;;19.13;17.70;;;12.40;99.90;;;;;;4973429;28;20463;-71
2022/06/14 03:34:02;;;;;;;22.33;19.47;;;12.30;99.90;;;;;;4973917;28;20456;-70
2022/06/14 03:36:29;;;;;;;20.33;18.73;;;12.40;99.90;;;;;;4954263;29;21034;-71
2022/06/14 03:39:03;;;;;;;19.57;18.10;;;12.40;99.90;;;;;;4954380;29;20464;-71
2022/06/14 03:41:33;;;;;;;20.63;18.83;;;12.40;99.90;;;;;;4954082;29;20453;-71
2022/06/14 03:44:02;;;;;;;20.37;18.87;;;12.40;99.90;;;;;;4954503;29;20508;-71
2022/06/14 03:46:34;;;;;;;20.73;19.03;;;12.40;99.90;;;;;;4954097;29;20460;-71
2022/06/14 03:49:06;;;;;;;24.10;18.90;;;12.40;99.90;;;;;;4954263;29;20939;-71
2022/06/14 03:51:44;;;;;;;20.03;18.17;;;12.40;99.90;;;;;;4953988;29;20483;-71
2022/06/14 03:54:26;;;;;;;19.00;17.57;;;12.50;99.90;;;;;;4954024;29;20452;-71
2022/06/14 03:57:07;;;;;;;19.50;18.00;;;12.50;99.90;;;;;;4953813;29;20826;-70
2022/06/14 03:59:49;;;;;;;19.87;18.57;;;12.60;99.90;;;;;;4953858;29;20935;-70
2022/06/14 04:02:21;;;;;;;19.87;17.97;;;12.60;99.90;;;;;;4953808;29;20887;-70
2022/06/14 04:04:55;;;;;;;18.93;17.73;;;12.60;99.90;;;;;;4953809;29;20452;-68
2022/06/14 04:07:35;;;;;;;20.40;18.53;;;12.70;99.90;;;;;;4953576;29;20682;-70
2022/06/14 04:10:14;;;;;;;20.10;18.50;;;12.60;99.90;;;;;;4953186;29;20464;-71
2022/06/14 04:12:48;;;;;;;20.40;18.90;;;12.70;99.90;;;;;;4950327;29;20456;-73
2022/06/14 04:15:26;;;;;;;19.53;18.10;;;12.70;99.90;;;;;;4953532;29;20520;-69
2022/06/14 04:18:34;;;;;;;19.80;18.27;;;12.80;99.90;;;;;;4953575;29;20460;-72
2022/06/14 04:20:56;;;;;;;19.80;18.50;;;12.80;99.90;;;;;;4953184;29;20559;-70
2022/06/14 04:23:33;;;;;;;18.20;17.00;;;13.10;99.90;;;;;;4953470;29;20475;-71
2022/06/14 04:26:09;;;;;;;17.57;16.03;;;13.50;99.90;;;;;;4953619;29;20452;-70
2022/06/14 04:28:43;;;;;;;17.13;15.90;;;13.90;99.90;;;;;;4952179;28;20464;-71
2022/06/14 04:31:15;;;;;;;18.20;16.90;;;14.40;99.90;;;;;;4953159;29;20456;-71
2022/06/14 04:33:47;;;;;;;17.50;16.10;;;14.70;99.90;;;;;;4953234;29;20460;-72
2022/06/14 04:36:19;;;;;;;17.33;15.97;;;15.10;99.90;;;;;;4952703;29;20835;-72
2022/06/14 04:38:50;;;;;;;15.47;14.50;;;15.30;99.90;;;;;;4953643;29;20460;-72
2022/06/14 04:41:24;;;;;;;17.13;16.03;;;15.40;99.90;;;;;;4953050;29;20459;-72
2022/06/14 04:43:54;;;;;;;16.60;15.40;;;15.60;99.90;;;;;;4951385;29;20520;-71
2022/06/14 04:46:27;;;;;;;15.33;14.13;;;15.80;99.90;;;;;;4949892;29;20462;-71
2022/06/14 04:48:59;;;;;;;15.47;14.53;;;16.00;99.90;;;;;;4951967;29;20471;-72
2022/06/14 04:51:31;;;;;;;15.53;14.20;;;16.30;99.90;;;;;;4953027;29;20823;-72
2022/06/14 04:54:01;;;;;;;15.57;14.57;;;16.60;99.90;;;;;;4952591;29;20457;-71
2022/06/14 04:56:33;;;;;;;16.80;15.70;;;16.90;99.90;;;;;;4952943;29;20500;-72
2022/06/14 04:59:04;;;;;;;14.17;13.37;;;17.00;99.90;;;;;;4953072;29;20563;-70
2022/06/14 05:01:36;;;;;;;13.87;13.07;;;17.20;99.90;;;;;;4952718;29;20464;-70
2022/06/14 05:04:07;;;;;;;13.37;12.57;;;17.20;99.90;;;;;;4952745;29;20862;-70
2022/06/14 05:06:39;;;;;;;15.53;14.30;;;17.30;99.90;;;;;;4952692;29;20448;-72
2022/06/14 05:09:10;;;;;;;15.20;14.10;;;17.50;99.90;;;;;;4952659;29;20463;-71
2022/06/14 05:11:43;;;;;;;14.77;13.87;;;17.90;99.90;;;;;;4951588;29;20476;-70
2022/06/14 05:14:14;;;;;;;15.00;14.07;;;18.10;99.90;;;;;;4952426;29;20571;-69
2022/06/14 05:16:46;;;;;;;14.60;13.80;;;18.30;99.90;;;;;;4952837;29;20492;-70
2022/06/14 05:19:18;;;;;;;15.47;14.27;;;18.60;99.90;;;;;;4952391;29;20463;-70
2022/06/14 05:21:50;;;;;;;15.83;14.63;;;18.50;99.90;;;;;;4952913;29;20457;-70
2022/06/14 05:24:18;;;;;;;14.57;13.67;;;18.20;99.90;;;;;;4952405;29;20463;-70
2022/06/14 05:27:03;;;;;;;14.53;13.40;;;18.20;99.90;;;;;;4952489;29;20460;-70
2022/06/14 05:29:36;;;;;;;14.33;13.53;;;18.30;99.90;;;;;;4952794;29;20455;-70
2022/06/14 05:32:08;;;;;;;14.63;13.53;;;18.70;99.90;;;;;;4952683;29;20459;-70
2022/06/14 05:34:41;;;;;;;14.53;13.50;;;18.90;99.90;;;;;;4952156;29;20557;-70
2022/06/14 05:37:16;;;;;;;15.30;14.13;;;18.90;99.90;;;;;;4952020;29;20496;-71
2022/06/14 05:39:48;;;;;;;15.30;14.30;;;19.10;99.90;;;;;;4951995;28;20460;-71
2022/06/14 05:42:20;;;;;;;15.43;14.40;;;19.60;99.90;;;;;;4952347;29;20448;-72
2022/06/14 05:44:49;;;;;;;14.47;13.57;;;19.80;99.90;;;;;;4952479;29;20460;-71
2022/06/14 05:47:22;;;;;;;15.33;14.10;;;19.80;99.90;;;;;;4952410;29;20946;-71
2022/06/14 05:49:52;;;;;;;14.80;13.90;;;19.90;99.90;;;;;;4952091;29;20448;-71
2022/06/14 05:52:25;;;;;;;14.37;13.57;;;19.90;99.90;;;;;;4952118;29;20496;-70
2022/06/14 05:55:00;;;;;;;15.57;14.47;;;20.00;99.90;;;;;;4952191;29;20456;-71
2022/06/14 05:57:32;;;;;;;16.27;14.40;;;19.90;99.90;;;;;;4951909;29;20858;-70
2022/06/14 06:00:05;;;;;;;15.40;14.50;;;20.10;99.90;;;;;;4952319;29;20453;-70
2022/06/14 06:02:38;;;;;;;15.77;14.83;;;20.80;99.90;;;;;;4952540;29;20437;-72
2022/06/14 06:05:12;;;;;;;16.77;15.70;;;21.20;98.70;;;;;;4952092;29;20456;-71
2022/06/14 06:07:47;;;;;;;16.27;15.07;;;21.80;97.10;;;;;;4951690;29;20722;-71
2022/06/14 06:10:18;;;;;;;16.47;15.10;;;21.90;96.80;;;;;;4952064;29;20463;-71
2022/06/14 06:12:50;;;;;;;17.10;15.90;;;22.20;95.90;;;;;;4952653;29;20457;-72
2022/06/14 06:15:23;;;;;;;16.70;15.43;;;22.70;94.40;;;;;;4952090;29;20782;-73
2022/06/14 06:17:52;;;;;;;16.90;16.00;;;23.00;93.60;;;;;;4952023;29;20515;-73
2022/06/14 06:20:32;;;;;;;16.90;15.90;;;23.50;92.40;;;;;;4952034;29;20843;-69
2022/06/14 06:23:05;;;;;;;17.33;16.10;;;23.60;91.50;;;;;;4948634;29;20974;-69
2022/06/14 06:25:36;;;;;;;19.07;17.87;;;23.70;91.20;;;;;;4949011;29;20456;-69
2022/06/14 06:28:08;;;;;;;18.37;17.37;;;23.90;90.80;;;;;;4951612;29;20455;-69
2022/06/14 06:30:39;;;;;;;19.23;18.00;;;24.60;88.70;;;;;;4951232;29;20459;-70
2022/06/14 06:33:10;;;;;;;19.20;17.70;;;25.30;85.20;;;;;;4951054;29;20494;-70
2022/06/14 06:35:42;;;;;;;17.60;16.27;;;25.40;84.20;;;;;;4950654;29;20547;-70
2022/06/14 06:38:19;;;;;;;18.23;16.83;;;25.40;82.70;;;;;;4950965;29;20515;-70
2022/06/14 06:43:44;;;;;;;17.00;15.90;;;25.20;84.10;;;;;;4951344;29;20997;-69
2022/06/14 06:46:14;;;;;;;17.63;16.13;;;26.10;80.60;;;;;;4951168;29;20989;-70
2022/06/14 06:48:46;;;;;;;16.90;15.90;;;26.20;80.80;;;;;;4951139;29;20449;-69
2022/06/14 06:51:18;;;;;;;17.23;15.87;;;26.30;79.20;;;;;;4951375;28;20451;-69
2022/06/14 06:53:52;;;;;;;16.20;15.40;;;26.80;78.10;;;;;;4954901;29;20823;-69
2022/06/14 06:56:25;;;;;;;17.57;16.37;;;26.20;79.20;;;;;;4954450;29;20466;-69
2022/06/14 06:58:57;;;;;;;17.07;15.90;;;26.30;79.30;;;;;;4954441;29;20457;-69
2022/06/14 07:01:28;;;;;;;16.30;15.40;;;26.10;78.60;;;;;;4954342;29;20797;-70
2022/06/14 07:04:02;;;;;;;16.90;15.90;;;26.00;80.20;;;;;;4954303;29;20453;-69
2022/06/14 07:06:30;;;;;;;17.80;16.50;;;26.30;78.40;;;;;;4954337;29;20460;-69
2022/06/14 07:09:00;;;;;;;16.90;15.90;;;26.00;79.30;;;;;;4954014;29;20456;-70
2022/06/14 07:11:32;;;;;;;16.47;15.50;;;26.50;78.00;;;;;;4954116;29;20448;-70
2022/06/14 07:14:06;;;;;;;17.10;15.80;;;26.50;77.90;;;;;;4954096;29;20453;-69
2022/06/14 07:16:39;;;;;;;18.20;16.63;;;27.00;76.30;;;;;;4954201;29;20452;-70
2022/06/14 07:19:18;;;;;;;19.07;17.53;;;27.50;75.80;;;;;;4954055;29;20452;-70
2022/06/14 07:21:53;;;;;;;17.80;16.40;;;27.60;74.00;;;;;;4954288;29;20522;-69
2022/06/14 07:24:25;;;;;;;17.37;16.27;;;27.90;72.80;;;;;;4954100;29;20822;-70
2022/06/14 07:26:55;;;;;;;17.20;16.30;;;28.30;72.20;;;;;;4953846;29;20448;-69
2022/06/14 07:29:27;;;;;;;18.37;17.20;;;28.10;71.60;;;;;;4953824;29;20962;-70
2022/06/14 07:31:58;;;;;;;17.10;15.80;;;27.90;72.50;;;;;;4953781;29;20456;-70
2022/06/14 07:34:26;;;;;;;18.37;17.13;;;27.60;71.90;;;;;;4953613;29;20717;-69
2022/06/14 07:37:02;;;;;;;17.50;16.27;;;27.20;74.20;;;;;;4953375;29;20503;-69
2022/06/14 07:39:38;;;;;;;17.33;16.30;;;27.60;73.40;;;;;;4953758;29;20456;-69
2022/06/14 07:42:13;;;;;;;17.77;16.40;;;27.80;72.30;;;;;;4953376;29;20472;-69
2022/06/14 07:44:48;;;;;;;18.60;17.33;;;27.60;73.20;;;;;;4953324;29;20820;-69
2022/06/14 07:47:20;;;;;;;17.67;16.47;;;28.60;71.50;;;;;;4953532;29;21068;-69
2022/06/14 07:49:54;;;;;;;17.90;16.97;;;29.10;68.70;;;;;;4953677;29;20878;-69
2022/06/14 07:52:27;;;;;;;18.67;17.67;;;29.60;67.20;;;;;;4953331;29;20507;-69
2022/06/14 07:55:00;;;;;;;18.20;17.20;;;30.00;65.00;;;;;;4953126;29;20463;-69
2022/06/14 07:57:32;;;;;;;18.47;17.57;;;29.90;64.80;;;;;;4953225;29;20835;-69
2022/06/14 08:02:49;;;;;;;19.40;18.20;;;31.20;61.40;;;;;;4952166;28;20433;-69
2022/06/14 08:05:21;;;;;;;19.27;17.90;;;31.70;58.40;;;;;;4953378;29;20842;-70
2022/06/14 08:07:51;;;;;;;21.97;20.53;;;32.30;56.00;;;;;;4953454;29;20455;-69
2022/06/14 08:10:21;;;;;;;19.00;17.87;;;32.30;55.40;;;;;;4953443;29;20475;-69
2022/06/14 08:12:53;;;;;;;19.17;17.97;;;32.00;55.60;;;;;;4951512;29;20452;-70
2022/06/14 08:15:25;;;;;;;19.53;18.23;;;31.90;55.60;;;;;;4953000;29;20448;-69
2022/06/14 08:17:57;;;;;;;18.57;17.43;;;31.70;54.70;;;;;;4952750;29;20500;-69
2022/06/14 08:20:27;;;;;;;19.13;17.97;;;31.40;55.30;;;;;;4952895;29;20873;-68
2022/06/14 08:22:56;;;;;;;18.70;17.90;;;31.50;55.90;;;;;;4952744;29;20883;-69
2022/06/14 08:25:27;;;;;;;18.20;17.40;;;31.70;55.30;;;;;;4952846;29;20468;-70
2022/06/14 08:28:00;;;;;;;18.73;17.70;;;31.90;54.20;;;;;;4952609;29;20437;-69
2022/06/14 08:30:32;;;;;;;18.87;17.87;;;31.50;53.90;;;;;;4952559;29;20942;-69
2022/06/14 08:33:08;;;;;;;18.37;17.27;;;32.20;52.90;;;;;;4952713;29;20456;-69
2022/06/14 08:35:40;;;;;;;18.03;16.97;;;32.60;51.00;;;;;;4952238;29;20484;-69
2022/06/14 08:38:12;;;;;;;17.87;16.93;;;31.80;51.40;;;;;;4952357;29;20491;-70
2022/06/14 08:40:50;;;;;;;20.03;18.10;;;32.30;51.80;;;;;;4952638;29;20449;-69
2022/06/14 08:43:23;;;;;;;18.77;17.77;;;32.50;51.30;;;;;;4952825;29;20981;-70
2022/06/14 08:46:11;;;;;;;18.40;17.30;;;32.80;51.60;;;;;;4952513;29;20453;-70
2022/06/14 08:48:42;;;;;;;18.53;17.63;;;33.00;49.30;;;;;;4952390;29;20551;-70
2022/06/14 08:51:14;;;;;;;18.67;17.60;;;31.80;50.20;;;;;;4952564;29;20454;-69
2022/06/14 08:54:30;;;;;;;17.60;16.47;;;30.40;52.70;;;;;;4952372;29;20444;-69
2022/06/14 08:57:33;;;;;;;19.53;18.23;;;29.80;53.80;;;;;;4952111;29;20444;-69
2022/06/14 09:00:12;;;;;;;18.13;16.93;;;29.90;54.40;;;;;;4952373;29;20455;-70
2022/06/14 09:03:16;;;;;;;17.87;16.77;;;30.40;52.40;;;;;;4952052;29;20804;-69
2022/06/14 09:06:18;;;;;;;18.10;17.00;;;31.00;52.00;;;;;;4951959;29;20460;-70
2022/06/14 09:09:11;;;;;;;18.50;17.43;;;31.10;52.00;;;;;;4952107;29;20448;-70
2022/06/14 09:11:56;;;;;;;17.90;16.83;;;31.80;51.70;;;;;;4951948;29;20468;-70
2022/06/14 09:14:45;;;;;;;18.23;17.20;;;31.90;51.30;;;;;;4951320;29;21151;-70
2022/06/14 09:17:32;;;;;;;17.93;16.77;;;32.60;50.00;;;;;;4951840;29;20452;-70
2022/06/14 09:20:03;;;;;;;18.43;17.40;;;32.80;49.90;;;;;;4951806;29;20919;-70
2022/06/14 09:22:38;;;;;;;18.40;16.83;;;34.00;48.10;;;;;;4952141;29;20461;-70
2022/06/14 09:25:23;;;;;;;17.30;16.50;;;34.30;45.10;;;;;;4951794;29;20475;-70
2022/06/14 09:28:05;;;;;;;18.43;17.57;;;34.50;45.00;;;;;;4951603;29;20448;-70
2022/06/14 09:31:03;;;;;;;17.67;16.87;;;34.70;43.00;;;;;;4950106;29;20472;-70
2022/06/14 09:33:48;;;;;;;17.20;16.30;;;35.20;42.30;;;;;;4950235;29;20459;-70
2022/06/14 09:36:55;;;;;;;16.83;15.93;;;33.70;43.40;;;;;;4951724;29;20495;-70
2022/06/14 09:40:06;;;;;;;16.23;15.43;;;33.50;44.90;;;;;;4951374;29;20620;-70
2022/06/14 09:43:11;;;;;;;17.43;16.53;;;33.10;44.50;;;;;;4906295;29;20453;-70
2022/06/14 09:45:58;;;;;;;17.63;16.33;;;32.20;46.30;;;;;;4909363;29;20452;-70
2022/06/14 09:48:46;;;;;;;17.57;16.53;;;32.40;47.20;;;;;;4951478;29;20983;-70
2022/06/14 09:51:39;;;;;;;16.67;15.80;;;33.10;45.80;;;;;;4951650;29;20943;-70
2022/06/14 09:54:25;;;;;;;17.07;16.17;;;33.90;45.20;;;;;;4951556;29;20455;-70
2022/06/14 09:57:19;;;;;;;18.77;17.20;;;34.70;44.00;;;;;;4951452;29;20524;-70
2022/06/14 10:00:03;;;;;;;17.73;16.83;;;34.60;43.50;;;;;;4948850;29;20469;-70
2022/06/14 10:02:42;;;;;;;18.10;17.20;;;34.70;42.40;;;;;;4951621;29;20457;-70
2022/06/14 10:05:25;;;;;;;17.03;16.17;;;35.20;41.90;;;;;;4951307;29;20448;-71
2022/06/14 10:08:14;;;;;;;17.20;16.40;;;35.00;41.10;;;;;;4949533;29;20539;-70
2022/06/14 10:10:51;;;;;;;17.70;16.87;;;33.00;43.60;;;;;;4951151;29;20456;-70
2022/06/14 10:13:40;;;;;;;17.13;15.60;;;31.50;45.90;;;;;;4951418;29;20829;-72
2022/06/14 10:16:18;;;;;;;16.40;15.53;;;31.50;45.40;;;;;;4951348;29;20829;-71
2022/06/14 10:19:03;;;;;;;16.10;15.40;;;32.40;44.90;;;;;;4951332;29;20487;-69
2022/06/14 10:21:34;;;;;;;17.03;16.30;;;33.70;43.80;;;;;;4951440;29;20666;-69
2022/06/14 10:24:14;;;;;;;18.67;17.73;;;33.60;42.40;;;;;;4951483;29;20461;-69
2022/06/14 10:30:13;;;;;;;17.80;16.80;;;32.30;43.90;;;;;;4954916;29;20436;-69
2022/06/14 10:33:02;;;;;;;16.47;15.63;;;31.00;46.40;;;;;;4954705;29;20448;-68
2022/06/14 10:35:38;;;;;;;18.00;16.40;;;31.60;46.10;;;;;;4954612;29;20476;-71
2022/06/14 10:38:33;;;;;;;17.47;16.60;;;31.20;43.90;;;;;;4952839;29;20488;-68
2022/06/14 10:41:02;;;;;;;17.03;16.20;;;30.60;45.60;;;;;;4954800;29;20455;-71
2022/06/14 10:43:41;;;;;;;17.30;16.40;;;30.20;45.20;;;;;;4954655;29;20452;-69
2022/06/14 10:46:11;;;;;;;17.07;16.33;;;31.30;44.30;;;;;;4954795;29;20742;-71
2022/06/14 10:49:09;;;;;;;17.57;16.77;;;32.40;43.50;;;;;;4954477;29;20595;-70
2022/06/14 10:51:46;;;;;;;17.90;17.00;;;33.30;41.10;;;;;;4954565;29;20453;-70
2022/06/14 10:54:21;;;;;;;16.57;15.67;;;33.80;40.70;;;;;;4954572;29;20461;-70
2022/06/14 10:57:13;;;;;;;17.97;16.90;;;34.20;41.20;;;;;;4954510;29;20500;-70
2022/06/14 11:00:08;;;;;;;15.93;15.23;;;32.90;41.60;;;;;;4954248;29;20503;-70
2022/06/14 11:02:55;;;;;;;17.70;16.77;;;32.20;43.50;;;;;;4954347;29;20548;-70
2022/06/14 11:05:32;;;;;;;16.60;15.73;;;32.00;42.90;;;;;;4912054;29;20843;-70
2022/06/14 11:08:16;;;;;;;17.00;16.30;;;32.10;43.20;;;;;;4954352;29;20452;-70
2022/06/14 11:11:11;;;;;;;16.77;15.87;;;32.90;42.00;;;;;;4954140;29;20452;-70
2022/06/14 11:13:45;;;;;;;17.67;16.70;;;32.30;41.50;;;;;;4954090;29;20716;-70
2022/06/14 11:16:31;;;;;;;17.50;16.70;;;31.90;42.50;;;;;;4954054;29;20872;-70
2022/06/14 11:19:31;;;;;;;16.90;16.00;;;31.40;43.80;;;;;;4953987;29;20499;-70
2022/06/14 11:22:12;;;;;;;17.40;16.50;;;31.50;43.50;;;;;;4954220;29;21203;-70
2022/06/14 11:24:43;;;;;;;17.10;16.13;;;31.40;43.00;;;;;;4953965;29;20455;-69
2022/06/14 11:27:16;;;;;;;17.90;16.97;;;31.10;43.60;;;;;;4953826;29;20588;-70
2022/06/14 11:29:54;;;;;;;16.80;16.00;;;31.00;43.70;;;;;;4953990;29;20823;-70
2022/06/14 11:32:28;;;;;;;16.87;15.87;;;31.40;43.40;;;;;;4953871;29;20460;-70
2022/06/14 11:35:05;;;;;;;17.53;16.63;;;31.40;42.60;;;;;;4953690;29;20673;-70
2022/06/14 11:37:50;;;;;;;17.67;16.83;;;31.00;43.20;;;;;;4953296;28;20491;-70
2022/06/14 11:40:23;;;;;;;16.77;15.97;;;31.00;44.30;;;;;;4954447;29;20779;-70
2022/06/14 11:43:02;;;;;;;17.07;16.17;;;31.20;43.00;;;;;;4953725;29;20460;-70
2022/06/14 11:45:42;;;;;;;17.53;16.53;;;31.90;42.80;;;;;;4953671;29;20495;-70
2022/06/14 11:48:18;;;;;;;16.73;16.03;;;32.10;42.50;;;;;;4953572;29;20664;-71
2022/06/14 11:50:53;;;;;;;16.07;15.27;;;32.30;41.90;;;;;;4953727;29;20946;-68
2022/06/14 11:53:47;;;;;;;17.33;16.53;;;33.00;40.40;;;;;;4953468;29;20488;-71
2022/06/14 11:56:23;;;;;;;17.33;16.43;;;32.80;40.60;;;;;;4953446;29;20487;-71
2022/06/14 11:59:14;;;;;;;17.10;16.30;;;33.00;40.60;;;;;;4953451;29;20492;-69
2022/06/14 12:01:51;;;;;;;16.63;15.83;;;33.60;40.60;;;;;;4953075;29;20885;-69
2022/06/14 12:04:33;;;;;;;17.50;16.70;;;33.50;40.00;;;;;;4953353;29;20457;-69
2022/06/14 12:07:09;;;;;;;16.90;16.10;;;33.30;40.50;;;;;;4953353;29;20965;-70
2022/06/14 12:10:02;;;;;;;17.23;16.23;;;32.80;41.30;;;;;;4953147;29;20449;-70
2022/06/14 12:12:35;;;;;;;16.40;15.63;;;32.60;40.60;;;;;;4953028;29;20464;-71
2022/06/14 12:15:06;;;;;;;16.77;15.90;;;33.60;40.50;;;;;;4953251;29;20459;-71
2022/06/14 12:17:37;;;;;;;17.23;16.43;;;34.00;39.10;;;;;;4952979;29;20525;-71
2022/06/14 12:20:10;;;;;;;17.33;16.43;;;34.10;38.70;;;;;;4952873;29;20485;-71
2022/06/14 12:22:47;;;;;;;16.80;15.90;;;34.10;38.00;;;;;;4952746;29;20457;-71
2022/06/14 12:28:17;;;;;;;16.40;15.70;;;33.90;38.10;;;;;;4952982;29;20440;-71
2022/06/14 12:30:46;;;;;;;16.93;16.07;;;34.40;38.00;;;;;;4952882;29;20445;-70
2022/06/14 12:33:29;;;;;;;15.83;15.07;;;34.20;38.40;;;;;;4952774;29;20453;-70
2022/06/14 12:36:02;;;;;;;16.17;15.30;;;33.50;38.50;;;;;;4952428;29;20555;-70
2022/06/14 12:38:36;;;;;;;16.97;16.27;;;32.70;40.50;;;;;;4952584;29;20497;-70
2022/06/14 12:41:20;;;;;;;15.80;15.00;;;32.20;41.60;;;;;;4952594;29;20464;-69
2022/06/14 12:44:01;;;;;;;16.30;15.30;;;31.50;43.30;;;;;;4952736;29;20456;-70
2022/06/14 12:46:35;;;;;;;15.83;15.13;;;31.30;43.40;;;;;;4952415;29;20511;-69
2022/06/14 12:49:08;;;;;;;17.60;16.60;;;31.30;43.50;;;;;;4951857;28;20456;-70
2022/06/14 12:51:43;;;;;;;18.10;17.10;;;31.40;43.30;;;;;;4952411;29;20512;-70
2022/06/14 12:54:18;;;;;;;19.33;18.00;;;31.80;42.30;;;;;;4952297;29;20452;-70
2022/06/14 12:56:53;;;;;;;17.73;16.83;;;32.50;42.40;;;;;;4952410;29;20459;-70
2022/06/14 12:59:26;;;;;;;16.60;15.80;;;32.90;41.00;;;;;;4952268;29;20490;-70
2022/06/14 13:02:02;;;;;;;17.47;16.37;;;33.60;40.80;;;;;;4952064;29;20456;-71
2022/06/14 13:04:36;;;;;;;17.07;16.13;;;34.00;40.00;;;;;;4952359;29;20447;-71
2022/06/14 13:07:18;;;;;;;15.50;14.90;;;34.70;39.70;;;;;;4952280;29;20975;-71
2022/06/14 13:09:55;;;;;;;16.50;15.80;;;33.90;38.60;;;;;;4952297;29;20745;-71
2022/06/14 13:12:33;;;;;;;16.73;15.67;;;32.70;39.70;;;;;;4952033;29;20449;-70
2022/06/14 13:15:04;;;;;;;16.07;15.37;;;32.10;41.00;;;;;;4952232;29;20811;-69
2022/06/14 13:17:58;;;;;;;16.20;15.30;;;31.50;40.40;;;;;;4952122;29;20492;-70
2022/06/14 13:20:31;;;;;;;15.60;14.97;;;30.70;41.90;;;;;;4948710;29;20552;-70
2022/06/14 13:23:14;;;;;;;15.50;14.80;;;31.00;41.70;;;;;;4951972;29;20526;-70
2022/06/14 13:26:05;;;;;;;15.50;14.70;;;31.00;40.90;;;;;;4951831;29;20456;-69
2022/06/14 13:28:55;;;;;;;16.20;15.40;;;31.80;40.30;;;;;;4952296;29;20962;-70
2022/06/14 13:31:43;;;;;;;16.40;15.60;;;32.80;39.40;;;;;;4949998;29;20544;-70
2022/06/14 13:34:25;;;;;;;14.83;14.13;;;32.20;39.90;;;;;;4951682;29;20495;-70
2022/06/14 13:37:01;;;;;;;15.33;14.73;;;31.10;41.80;;;;;;4951372;29;20480;-70
2022/06/14 13:39:33;;;;;;;15.77;14.87;;;30.50;42.30;;;;;;4951656;29;20488;-69
2022/06/14 13:42:07;;;;;;;15.37;14.40;;;30.60;42.50;;;;;;4952005;29;20452;-70
2022/06/14 13:44:41;;;;;;;15.10;14.43;;;31.30;40.40;;;;;;4951937;29;20452;-69
2022/06/14 13:47:15;;;;;;;15.90;15.20;;;31.80;39.90;;;;;;4951628;29;20453;-69
2022/06/14 13:49:48;;;;;;;16.30;15.50;;;32.60;39.50;;;;;;4951646;29;20448;-70
2022/06/14 13:52:20;;;;;;;16.20;15.50;;;33.20;38.40;;;;;;4950065;29;20463;-70
2022/06/14 13:54:52;;;;;;;16.87;15.90;;;33.30;39.00;;;;;;4951922;29;20472;-70
2022/06/14 13:57:29;;;;;;;16.40;15.50;;;33.30;38.60;;;;;;4951847;29;20459;-70
2022/06/14 14:00:03;;;;;;;16.20;15.40;;;33.20;38.30;;;;;;4951734;28;20480;-70
2022/06/14 14:02:39;;;;;;;15.77;14.90;;;33.50;37.50;;;;;;4955564;29;20512;-70
2022/06/14 14:05:23;;;;;;;15.87;15.13;;;32.90;39.40;;;;;;4955335;29;20464;-71
2022/06/14 14:07:59;;;;;;;16.37;15.63;;;31.80;40.90;;;;;;4955296;29;20456;-70
2022/06/14 14:10:40;;;;;;;16.00;15.00;;;30.70;42.20;;;;;;4955535;29;20455;-68
2022/06/14 14:13:12;;;;;;;16.23;15.53;;;31.10;43.00;;;;;;4955397;29;20951;-71
2022/06/14 14:15:46;;;;;;;16.53;15.73;;;31.60;41.10;;;;;;4955361;29;20835;-70
2022/06/14 14:18:22;;;;;;;15.93;15.13;;;30.70;41.20;;;;;;4955198;29;20447;-70
2022/06/14 14:20:56;;;;;;;15.90;15.10;;;31.00;41.70;;;;;;4955288;29;20495;-71
2022/06/14 14:23:40;;;;;;;15.73;15.03;;;32.00;41.00;;;;;;4955077;29;20460;-71
2022/06/14 14:26:15;;;;;;;15.43;14.63;;;32.30;40.10;;;;;;4954966;29;20939;-70
2022/06/14 14:28:49;;;;;;;16.80;16.00;;;31.80;40.20;;;;;;4955051;29;20484;-70
2022/06/14 14:31:28;;;;;;;14.50;13.87;;;31.00;41.60;;;;;;4955396;29;20452;-70
2022/06/14 14:33:59;;;;;;;16.83;16.03;;;30.70;43.00;;;;;;4954841;29;20459;-70
2022/06/14 14:36:45;;;;;;;15.27;14.60;;;30.40;43.40;;;;;;4954569;29;20484;-70
2022/06/14 14:39:21;;;;;;;16.87;16.10;;;30.10;43.90;;;;;;4954675;29;20492;-70
2022/06/14 14:41:53;;;;;;;16.23;15.53;;;29.90;43.00;;;;;;4955034;29;20456;-70
2022/06/14 14:44:26;;;;;;;15.57;14.87;;;29.90;43.20;;;;;;4954938;29;20460;-70
2022/06/14 14:46:58;;;;;;;15.70;14.90;;;30.20;41.30;;;;;;4954489;29;20448;-70
2022/06/14 14:49:33;;;;;;;15.27;14.60;;;30.30;40.70;;;;;;4954800;29;20444;-70
2022/06/14 14:52:12;;;;;;;15.20;14.33;;;29.70;42.40;;;;;;4954714;29;20459;-70
2022/06/14 14:54:48;;;;;;;14.03;13.20;;;28.70;44.70;;;;;;4954520;29;20714;-70
2022/06/14 14:57:24;;;;;;;16.97;15.53;;;28.40;45.70;;;;;;4954841;29;20456;-70
2022/06/14 14:59:55;;;;;;;15.13;14.40;;;28.70;45.00;;;;;;4954236;29;20494;-70
2022/06/14 15:05:26;;;;;;;14.70;14.00;;;28.20;45.10;;;;;;4954715;29;20432;-70
2022/06/14 15:08:05;;;;;;;15.27;14.57;;;28.30;44.80;;;;;;4953337;29;20805;-68
2022/06/14 15:10:54;;;;;;;14.47;13.87;;;28.60;45.20;;;;;;4954707;29;20456;-70
2022/06/14 15:13:37;;;;;;;14.93;14.23;;;28.80;45.20;;;;;;4953142;28;20528;-68
2022/06/14 15:16:04;;;;;;;15.57;14.87;;;28.40;43.20;;;;;;4954187;29;20448;-70
2022/06/14 15:21:25;;;;;;;15.37;14.37;;;27.50;44.60;;;;;;4954074;29;20424;-70
2022/06/14 15:23:57;;;;;;;15.03;14.40;;;27.10;44.80;;;;;;4953897;29;20456;-70
2022/06/14 15:26:26;;;;;;;14.40;13.70;;;26.90;45.80;;;;;;4953955;29;21049;-69
2022/06/14 15:28:56;;;;;;;15.07;14.13;;;26.80;45.60;;;;;;4953784;29;20725;-70
2022/06/14 15:31:47;;;;;;;14.60;13.93;;;26.70;47.10;;;;;;4953764;29;20440;-70
2022/06/14 15:34:23;;;;;;;14.07;13.37;;;26.60;47.00;;;;;;4953923;29;20441;-69
2022/06/14 15:36:54;;;;;;;15.03;14.13;;;26.60;46.80;;;;;;4953619;29;21010;-70
2022/06/14 15:39:27;;;;;;;15.07;14.27;;;26.50;47.50;;;;;;4953531;29;20524;-70
2022/06/14 15:41:56;;;;;;;14.87;14.17;;;26.50;47.60;;;;;;4953628;29;20444;-70
2022/06/14 15:44:27;;;;;;;13.97;13.30;;;26.60;47.20;;;;;;4953504;29;20479;-69
2022/06/14 15:46:57;;;;;;;14.30;13.60;;;26.70;46.10;;;;;;4953683;29;20453;-70
2022/06/14 15:49:28;;;;;;;15.07;14.37;;;26.90;45.80;;;;;;4953564;29;20820;-70
2022/06/14 15:51:56;;;;;;;14.70;13.90;;;26.90;46.10;;;;;;4953721;29;20568;-69
2022/06/14 15:54:27;;;;;;;14.10;13.47;;;27.00;46.30;;;;;;4953256;29;20456;-69
2022/06/14 15:57:00;;;;;;;13.90;13.40;;;27.00;45.80;;;;;;4953403;29;20452;-70
2022/06/14 15:59:30;;;;;;;14.50;13.90;;;27.00;45.60;;;;;;4953426;29;20589;-70
2022/06/14 16:02:00;;;;;;;14.60;13.90;;;27.00;45.60;;;;;;4953292;29;20464;-70
2022/06/14 16:04:33;;;;;;;13.87;13.27;;;27.00;45.20;;;;;;4953037;29;20985;-70
2022/06/14 16:07:04;;;;;;;13.80;13.20;;;27.00;44.60;;;;;;4951578;29;20947;-70
2022/06/14 16:09:35;;;;;;;13.80;13.10;;;26.90;44.70;;;;;;4953271;29;20782;-69